FMNN

Fascene Airport

Nosy Be, Madagascar
TAF FMNN 162300Z 1700/1724 06008KT 9999 SCT020 BECMG 1712/1714 SCT020CB PROB30 TEMPO 1715/1721 4500 TSRA
Issued Valid From Valid To
Jan-16 @ 23:00 UTC
(6 hours ago)
Jan-17 @ 00:00 UTC
(5 hours ago)
Jan-18 @ 00:00 UTC
(in 19 hours)
Jan-17 @ 00:00 to Jan-17 @ 12:00
TAF FMNN 162300Z 1700/1724 06008KT 9999 SCT020
Wind Visibility Clouds
60° at 8 knots 10,000+ meters
  • Scattered at 2,000' AGL
Becoming Jan-17 @ 12:00 to Jan-18 @ 00:00
BECMG 1712/1714 SCT020CB
Wind Visibility Clouds
60° at 8 knots 10,000+ meters
  • Scattered at 2,000' AGL
Temporary  (Probability 30%) Jan-17 @ 15:00 to Jan-17 @ 21:00
PROB30 TEMPO 1715/1721 4500 TSRA
Visibility Conditions
4,506 meters
  • Thunderstorm
  • Rain
TAF FMNN 162300Z 1700/1724 06008KT 9999 SCT020 BECMG 1712/1714 SCT020CB PROB30 TEMPO 1715/1721 4500 TSRA
Issued Jan-16 @ 23:00 UTC
(6 hours ago)
Valid From Jan-17 @ 00:00 UTC
(5 hours ago)
Valid To Jan-18 @ 00:00 UTC
(in 19 hours)
Jan-17 @ 00:00 - Jan-17 @ 12:00
Wind Visibility
60° at 8 knots 10,000+ meters
Clouds
  • Scattered at 2,000' AGL
Becoming Jan-17 @ 12:00 - Jan-18 @ 00:00
Wind Visibility
60° at 8 knots 10,000+ meters
Clouds
  • Scattered at 2,000' AGL
Probability 30% Temporary Jan-17 @ 15:00 - Jan-17 @ 21:00
Conditions
  • Thunderstorm
  • Rain